createdAt,value
2019-02-27T00:00:50.006Z,4.20
2019-02-27T00:05:54.142Z,4.00
2019-02-27T00:10:58.383Z,5.00
2019-02-27T00:16:02.560Z,4.00
2019-02-27T00:21:10.003Z,3.60
2019-02-27T00:26:13.151Z,4.00
2019-02-27T00:31:17.404Z,3.25
2019-02-27T00:36:21.445Z,4.50
2019-02-27T00:41:25.663Z,3.50
2019-02-27T00:46:29.733Z,3.25
2019-02-27T00:51:33.894Z,4.00
2019-02-27T00:56:38.191Z,4.00
2019-02-27T01:01:42.347Z,3.00
2019-02-27T01:06:47.598Z,4.40
2019-02-27T01:11:52.512Z,3.40
2019-02-27T01:16:56.592Z,4.00
2019-02-27T01:22:00.652Z,4.00
2019-02-27T01:27:05.401Z,4.25
2019-02-27T01:32:09.564Z,4.00
2019-02-27T01:37:13.705Z,4.00
2019-02-27T01:42:17.864Z,4.25
2019-02-27T01:47:22.019Z,4.50
2019-02-27T01:52:26.094Z,5.00
2019-02-27T01:57:30.256Z,4.00
2019-02-27T02:02:34.901Z,4.00
2019-02-27T02:07:40.843Z,4.00
2019-02-27T02:12:46.855Z,3.00
2019-02-27T02:18:24.411Z,3.25
2019-02-27T02:24:01.265Z,4.00
2019-02-27T02:30:01.713Z,3.50
2019-02-27T02:36:05.722Z,4.20
2019-02-27T02:41:52.539Z,3.00
2019-02-27T02:47:21.514Z,3.75
2019-02-27T02:52:41.708Z,3.80
2019-02-27T02:58:17.361Z,4.00
2019-02-27T03:03:36.186Z,2.60
2019-02-27T03:09:14.659Z,4.00
2019-02-27T03:14:54.624Z,4.00
2019-02-27T03:20:35.717Z,3.00
2019-02-27T03:25:51.451Z,3.25
2019-02-27T03:31:16.022Z,5.00
2019-02-27T03:37:13.137Z,3.50
2019-02-27T03:42:46.445Z,3.00
2019-02-27T03:48:07.028Z,4.00
2019-02-27T03:53:31.365Z,4.00
2019-02-27T03:59:12.677Z,4.00
2019-02-27T04:05:13.293Z,4.00
2019-02-27T04:10:17.469Z,3.00
2019-02-27T04:15:21.584Z,4.20
2019-02-27T04:20:25.653Z,3.00
2019-02-27T04:25:31.561Z,3.25
2019-02-27T04:30:35.605Z,2.25
2019-02-27T04:35:40.201Z,3.40
2019-02-27T04:40:44.794Z,2.50
2019-02-27T04:45:49.045Z,3.00
2019-02-27T04:50:53.127Z,3.25
2019-02-27T04:55:57.213Z,2.80
2019-02-27T05:01:01.454Z,4.00
2019-02-27T05:06:05.582Z,2.50
2019-02-27T05:11:13.954Z,3.75
2019-02-27T05:16:15.589Z,3.20
2019-02-27T05:21:19.791Z,3.00
2019-02-27T05:26:27.081Z,3.00
2019-02-27T05:31:29.763Z,3.25
2019-02-27T05:36:33.814Z,3.50
2019-02-27T05:41:38.143Z,3.00
2019-02-27T05:46:42.241Z,2.40
2019-02-27T05:51:46.401Z,2.00
2019-02-27T05:56:50.494Z,3.00
2019-02-27T06:01:54.605Z,4.00
2019-02-27T06:06:58.739Z,2.75
2019-02-27T06:12:06.563Z,3.00
2019-02-27T06:17:10.102Z,3.00
2019-02-27T06:22:14.451Z,2.67
2019-02-27T06:27:18.502Z,3.20
2019-02-27T06:32:22.639Z,4.00
2019-02-27T06:37:26.836Z,2.25
2019-02-27T06:42:31.023Z,3.33
2019-02-27T06:47:35.577Z,4.00
2019-02-27T06:52:42.487Z,3.00
2019-02-27T06:57:46.341Z,3.80
2019-02-27T07:02:55.118Z,3.40
2019-02-27T07:07:56.385Z,3.75
2019-02-27T07:13:00.438Z,4.00
2019-02-27T07:18:06.098Z,3.00
2019-02-27T07:23:10.436Z,3.00
2019-02-27T07:28:14.467Z,3.75
2019-02-27T07:33:18.558Z,3.00
2019-02-27T07:38:22.594Z,1.80
2019-02-27T07:43:26.637Z,3.20
2019-02-27T07:48:30.690Z,18.00
2019-02-27T07:53:35.095Z,19.50
2019-02-27T07:58:39.142Z,21.00
2019-02-27T08:03:45.584Z,20.00
2019-02-27T08:08:49.039Z,19.00
2019-02-27T08:13:53.079Z,17.00
2019-02-27T08:18:57.108Z,15.40
2019-02-27T08:24:05.389Z,14.80
2019-02-27T08:29:06.963Z,13.00
2019-02-27T08:34:11.012Z,12.20
2019-02-27T08:39:15.035Z,12.00
2019-02-27T08:44:19.083Z,10.40
2019-02-27T08:49:24.977Z,10.75
2019-02-27T08:54:31.918Z,9.00
2019-02-27T08:59:36.918Z,10.40
2019-02-27T09:04:42.895Z,10.40
2019-02-27T09:09:51.143Z,9.00
2019-02-27T09:14:52.088Z,9.00
2019-02-27T09:19:56.133Z,7.25
2019-02-27T09:25:00.344Z,7.60
2019-02-27T09:30:05.203Z,8.00
2019-02-27T09:35:09.702Z,7.40
2019-02-27T09:40:16.085Z,7.80
2019-02-27T09:45:25.414Z,8.80
2019-02-27T09:50:37.304Z,8.00
2019-02-27T09:55:41.503Z,5.00
2019-02-27T10:00:47.756Z,6.20
2019-02-27T10:05:51.836Z,6.50
2019-02-27T10:10:56.008Z,6.60
2019-02-27T10:16:01.330Z,6.60
2019-02-27T10:21:05.945Z,6.25
2019-02-27T10:26:10.050Z,7.20
2019-02-27T10:31:14.216Z,5.60
2019-02-27T10:36:18.330Z,6.00
2019-02-27T10:41:22.438Z,5.75
2019-02-27T10:46:26.668Z,5.20
2019-02-27T10:51:30.829Z,7.00
2019-02-27T10:56:35.038Z,6.00
2019-02-27T11:01:39.367Z,7.50
2019-02-27T11:06:45.149Z,5.00
2019-02-27T11:11:53.747Z,5.00
2019-02-27T11:16:55.126Z,4.75
2019-02-27T11:21:59.279Z,7.00
2019-02-27T11:27:06.200Z,5.50
2019-02-27T11:32:09.395Z,6.00
2019-02-27T11:37:14.317Z,16.80
2019-02-27T11:42:19.262Z,19.00
2019-02-27T11:47:23.437Z,19.80
2019-02-27T11:52:28.717Z,18.60
2019-02-27T11:57:33.137Z,15.25
2019-02-27T12:02:37.994Z,15.75
2019-02-27T12:07:42.252Z,15.00
2019-02-27T12:12:46.443Z,13.00
2019-02-27T12:17:50.637Z,11.40
2019-02-27T12:22:54.951Z,10.80
2019-02-27T12:27:59.026Z,8.75
2019-02-27T12:33:03.096Z,19.00
2019-02-27T12:38:08.452Z,21.00
2019-02-27T12:43:17.391Z,20.75
2019-02-27T12:48:18.514Z,21.00
2019-02-27T12:53:22.728Z,25.00
2019-02-27T12:58:26.819Z,24.50
2019-02-27T13:03:30.865Z,22.75
2019-02-27T13:08:35.098Z,24.50
2019-02-27T13:13:39.309Z,27.00
2019-02-27T13:18:43.504Z,23.20
2019-02-27T13:23:47.535Z,21.20
2019-02-27T13:28:51.691Z,17.00
2019-02-27T13:33:55.716Z,18.60
2019-02-27T13:38:59.808Z,14.80
2019-02-27T13:44:03.993Z,13.25
2019-02-27T13:49:08.241Z,15.25
2019-02-27T13:54:12.282Z,15.20
2019-02-27T13:59:16.301Z,18.40
2019-02-27T14:04:22.641Z,13.40
2019-02-27T14:09:26.241Z,12.00
2019-02-27T14:14:30.552Z,12.60
2019-02-27T14:19:36.445Z,10.80
2019-02-27T14:24:40.745Z,11.25
2019-02-27T14:29:44.809Z,8.40
2019-02-27T14:34:48.817Z,8.25
2019-02-27T14:39:52.919Z,9.40
2019-02-27T14:44:56.924Z,11.00
2019-02-27T14:50:00.992Z,8.50
2019-02-27T14:55:05.731Z,7.20
2019-02-27T15:00:26.116Z,9.00
2019-02-27T15:05:30.614Z,8.40
2019-02-27T15:10:34.647Z,8.75
2019-02-27T15:16:31.445Z,6.40
2019-02-27T15:21:35.542Z,5.25
2019-02-27T15:26:45.235Z,6.75
2019-02-27T15:31:45.429Z,6.00
2019-02-27T15:36:49.753Z,5.00
2019-02-27T15:41:53.923Z,5.75
2019-02-27T15:46:58.126Z,6.25
2019-02-27T15:52:06.617Z,6.75
2019-02-27T15:57:08.058Z,6.00
2019-02-27T16:02:12.181Z,5.50
2019-02-27T16:07:16.297Z,4.75
2019-02-27T16:12:20.371Z,5.20
2019-02-27T16:17:24.479Z,4.60
2019-02-27T16:22:31.394Z,5.00
2019-02-27T16:27:35.367Z,5.00
2019-02-27T16:32:40.247Z,4.00
2019-02-27T16:37:44.505Z,4.25
2019-02-27T16:42:48.658Z,3.60
2019-02-27T16:47:54.040Z,3.00
2019-02-27T16:52:58.857Z,4.00
2019-02-27T16:58:03.368Z,3.25
2019-02-27T17:03:12.815Z,4.60
2019-02-27T17:08:13.498Z,4.00
2019-02-27T17:13:17.607Z,5.40
2019-02-27T17:18:27.921Z,4.25
2019-02-27T17:23:27.562Z,4.50
2019-02-27T17:28:31.623Z,3.00
2019-02-27T17:33:37.983Z,2.75
2019-02-27T17:38:41.609Z,4.20
2019-02-27T17:43:45.694Z,3.75
2019-02-27T17:48:49.739Z,3.00
2019-02-27T17:53:55.075Z,3.00
2019-02-27T17:58:59.951Z,3.20
2019-02-27T18:04:04.203Z,2.00
2019-02-27T18:09:09.952Z,2.80
2019-02-27T18:14:14.038Z,2.75
2019-02-27T18:19:18.181Z,3.40
2019-02-27T18:50:48.024Z,3.40
2019-02-27T18:55:52.299Z,3.80
2019-02-27T19:00:56.627Z,4.00
2019-02-27T19:06:00.834Z,3.75
2019-02-27T19:11:05.104Z,7.20
2019-02-27T19:16:09.216Z,6.25
2019-02-27T19:21:13.391Z,5.00
2019-02-27T19:26:17.550Z,5.00
2019-02-27T19:31:21.758Z,5.50
2019-02-27T19:36:30.521Z,4.50
2019-02-27T19:41:31.761Z,5.20
2019-02-27T19:46:35.887Z,5.40
2019-02-27T19:51:40.066Z,5.00
2019-02-27T19:56:44.174Z,5.40
2019-02-27T20:01:49.279Z,5.00
2019-02-27T20:06:53.525Z,4.75
2019-02-27T20:11:57.740Z,4.00
2019-02-27T20:17:02.205Z,5.25
2019-02-27T20:22:08.535Z,5.00
2019-02-27T20:27:12.666Z,5.00
2019-02-27T20:32:16.784Z,5.25
2019-02-27T20:37:20.869Z,4.75
2019-02-27T20:42:25.056Z,6.00
2019-02-27T20:47:29.111Z,3.40
2019-02-27T20:52:34.015Z,4.60
2019-02-27T20:57:39.523Z,5.20
2019-02-27T21:02:43.954Z,5.25
2019-02-27T21:07:48.082Z,4.75
2019-02-27T21:12:54.247Z,9.00
2019-02-27T21:17:58.765Z,8.00
2019-02-27T21:23:03.097Z,6.25
2019-02-27T21:28:07.916Z,6.50
2019-02-27T21:33:12.130Z,5.50
2019-02-27T21:38:16.791Z,6.50
2019-02-27T21:43:25.139Z,7.75
2019-02-27T21:48:27.876Z,6.00
2019-02-27T21:53:31.919Z,6.25
2019-02-27T21:58:36.001Z,5.00
2019-02-27T22:03:40.175Z,6.00
2019-02-27T22:08:44.282Z,6.00
2019-02-27T22:13:48.464Z,5.00
2019-02-27T22:18:52.489Z,6.00
2019-02-27T22:23:56.707Z,5.00
2019-02-27T22:29:00.819Z,5.75
2019-02-27T22:34:10.666Z,5.00
2019-02-27T22:39:14.821Z,5.80
2019-02-27T22:44:18.908Z,6.00
2019-02-27T22:49:23.020Z,4.50
2019-02-27T22:54:27.056Z,4.50
2019-02-27T22:59:31.096Z,5.00
2019-02-27T23:04:35.299Z,5.00
2019-02-27T23:09:39.793Z,5.00
2019-02-27T23:14:44.236Z,5.00
2019-02-27T23:19:48.672Z,5.00
2019-02-27T23:24:52.707Z,6.00
2019-02-27T23:29:56.751Z,5.00
2019-02-27T23:35:00.821Z,5.00
2019-02-27T23:40:05.642Z,5.00
2019-02-27T23:45:10.933Z,5.80
2019-02-27T23:50:15.348Z,5.60
2019-02-27T23:55:19.357Z,4.60
